createdAt,value
2023-01-08T00:03:27.081Z,90.18
2023-01-08T00:08:29.497Z,89.81
2023-01-08T00:13:30.960Z,90.19
2023-01-08T00:18:32.808Z,90.43
2023-01-08T00:23:35.548Z,90.43
2023-01-08T00:28:38.037Z,90.73
2023-01-08T00:33:40.655Z,90.63
2023-01-08T00:38:43.170Z,89.85
2023-01-08T00:43:44.635Z,89.22
2023-01-08T00:48:46.098Z,89.20
2023-01-08T00:53:47.512Z,89.96
2023-01-08T00:58:49.275Z,89.09
2023-01-08T01:03:50.719Z,88.81
2023-01-08T01:08:52.458Z,89.00
2023-01-08T01:13:57.485Z,89.60
2023-01-08T01:18:58.969Z,88.35
2023-01-08T01:24:03.141Z,88.84
2023-01-08T01:29:04.929Z,89.31
2023-01-08T01:34:06.409Z,89.62
2023-01-08T01:39:08.058Z,89.99
2023-01-08T01:44:46.760Z,89.10
2023-01-08T01:50:19.670Z,89.35
2023-01-08T01:55:21.137Z,89.24
2023-01-08T02:00:23.265Z,89.49
2023-01-08T02:05:32.806Z,89.57
2023-01-08T02:10:48.259Z,88.83
2023-01-08T02:16:06.144Z,89.00
2023-01-08T02:21:11.213Z,88.02
2023-01-08T02:26:29.575Z,88.11
2023-01-08T02:31:33.008Z,88.04
2023-01-08T02:36:55.181Z,88.46
2023-01-08T02:42:06.923Z,88.65
2023-01-08T02:47:15.847Z,88.80
2023-01-08T02:52:18.132Z,88.86
2023-01-08T02:57:20.699Z,89.89
2023-01-08T03:02:22.840Z,90.09
2023-01-08T03:07:24.337Z,89.54
2023-01-08T03:12:43.751Z,89.85
2023-01-08T03:17:48.356Z,89.84
2023-01-08T03:22:54.520Z,90.00
2023-01-08T03:28:02.693Z,90.01
2023-01-08T03:33:06.160Z,89.62
2023-01-08T03:38:32.511Z,89.59
2023-01-08T03:43:34.005Z,89.77
2023-01-08T03:48:36.839Z,89.16
2023-01-08T03:53:38.482Z,89.45
2023-01-08T03:58:39.907Z,89.08
2023-01-08T04:03:41.336Z,88.97
2023-01-08T04:08:42.750Z,89.08
2023-01-08T04:13:44.247Z,89.94
2023-01-08T04:18:45.701Z,90.26
2023-01-08T04:23:47.582Z,89.89
2023-01-08T04:28:49.032Z,90.36
2023-01-08T04:33:50.487Z,91.03
2023-01-08T04:38:51.959Z,90.52
2023-01-08T04:43:53.379Z,91.07
2023-01-08T04:48:55.071Z,90.06
2023-01-08T04:53:57.679Z,89.74
2023-01-08T04:58:59.540Z,90.25
2023-01-08T05:04:02.810Z,90.33
2023-01-08T05:09:04.273Z,90.45
2023-01-08T05:14:05.712Z,90.14
2023-01-08T05:19:07.190Z,90.69
2023-01-08T05:24:09.459Z,90.41
2023-01-08T05:29:11.004Z,89.77
2023-01-08T05:34:12.483Z,90.62
2023-01-08T05:39:13.934Z,90.55
2023-01-08T05:44:15.358Z,90.09
2023-01-08T05:49:17.026Z,89.81
2023-01-08T05:54:18.600Z,89.37
2023-01-08T05:59:20.015Z,89.48
2023-01-08T06:04:21.545Z,89.27
2023-01-08T06:09:22.994Z,89.62
2023-01-08T06:14:24.751Z,89.39
2023-01-08T06:19:26.187Z,88.69
2023-01-08T06:24:27.592Z,88.40
2023-01-08T06:29:28.990Z,89.26
2023-01-08T06:34:30.448Z,89.57
2023-01-08T06:39:31.908Z,89.74
2023-01-08T06:44:33.325Z,89.86
2023-01-08T06:49:34.729Z,88.87
2023-01-08T06:54:36.245Z,88.96
2023-01-08T06:59:37.644Z,89.01
2023-01-08T07:04:39.105Z,88.91
2023-01-08T07:09:41.792Z,88.14
2023-01-08T07:14:43.229Z,89.22
2023-01-08T07:19:44.628Z,89.36
2023-01-08T07:24:46.031Z,90.28
2023-01-08T07:29:47.983Z,90.28
2023-01-08T07:34:49.405Z,90.59
2023-01-08T07:39:53.007Z,90.41
2023-01-08T07:44:54.416Z,89.86
2023-01-08T07:49:55.821Z,89.68
2023-01-08T07:54:57.317Z,89.11
2023-01-08T07:59:58.723Z,90.68
2023-01-08T08:05:00.188Z,90.17
2023-01-08T08:10:02.273Z,90.99
2023-01-08T08:15:04.078Z,90.80
2023-01-08T08:20:06.054Z,90.89
2023-01-08T08:25:07.930Z,90.55
2023-01-08T08:30:11.200Z,91.10
2023-01-08T08:35:12.643Z,91.07
2023-01-08T08:40:14.138Z,90.68
2023-01-08T08:45:15.571Z,91.33
2023-01-08T08:50:17.630Z,90.23
2023-01-08T08:55:19.228Z,90.29
2023-01-08T09:00:21.049Z,89.63
2023-01-08T09:05:22.474Z,89.00
2023-01-08T09:10:24.032Z,88.32
2023-01-08T09:15:25.499Z,88.00
2023-01-08T09:20:27.307Z,87.62
2023-01-08T09:25:29.259Z,87.53
2023-01-08T09:30:30.936Z,87.31
2023-01-08T09:35:33.260Z,86.97
2023-01-08T09:40:58.180Z,86.54
2023-01-08T09:46:03.923Z,86.36
2023-01-08T09:51:15.502Z,85.93
2023-01-08T09:56:18.943Z,85.38
2023-01-08T10:01:27.377Z,85.12
2023-01-08T10:06:28.956Z,80.49
2023-01-08T10:11:43.105Z,82.95
2023-01-08T10:16:48.075Z,81.97
2023-01-08T10:21:50.414Z,82.13
2023-01-08T10:26:53.744Z,80.30
2023-01-08T10:31:58.582Z,80.63
2023-01-08T10:37:00.548Z,80.83
2023-01-08T10:42:06.856Z,81.00
2023-01-08T10:47:18.290Z,79.68
2023-01-08T10:52:24.564Z,79.49
2023-01-08T10:57:30.907Z,79.44
2023-01-08T11:02:40.237Z,78.67
2023-01-08T11:07:42.443Z,79.39
2023-01-08T11:12:44.734Z,79.45
2023-01-08T11:17:46.615Z,79.30
2023-01-08T11:22:48.042Z,79.09
2023-01-08T11:27:51.445Z,79.23
2023-01-08T11:33:01.839Z,77.73
2023-01-08T11:38:06.152Z,78.34
2023-01-08T11:43:17.994Z,78.00
2023-01-08T11:48:29.785Z,77.46
2023-01-08T11:53:46.571Z,77.33
2023-01-08T11:59:13.125Z,77.96
2023-01-08T12:04:27.977Z,77.80
2023-01-08T12:09:35.544Z,77.75
2023-01-08T12:14:44.739Z,78.21
2023-01-08T12:20:11.453Z,78.01
2023-01-08T12:25:43.480Z,78.78
2023-01-08T12:31:09.546Z,78.20
2023-01-08T12:36:17.601Z,78.70
2023-01-08T12:41:19.617Z,78.85
2023-01-08T12:46:24.866Z,78.17
2023-01-08T12:51:37.159Z,78.39
2023-01-08T12:56:50.499Z,78.39
2023-01-08T13:02:04.999Z,77.22
2023-01-08T13:07:06.694Z,77.63
2023-01-08T13:12:09.080Z,78.64
2023-01-08T13:17:22.218Z,78.94
2023-01-08T13:22:25.240Z,78.87
2023-01-08T13:27:29.406Z,79.64
2023-01-08T13:32:47.868Z,79.35
2023-01-08T13:37:52.091Z,79.32
2023-01-08T13:42:53.603Z,79.73
2023-01-08T13:47:56.274Z,79.99
2023-01-08T13:53:00.131Z,79.57
2023-01-08T13:58:05.044Z,79.60
2023-01-08T14:03:30.951Z,79.42
2023-01-08T14:08:32.956Z,79.97
2023-01-08T14:13:35.635Z,80.03
2023-01-08T14:18:40.961Z,79.76
2023-01-08T14:23:46.534Z,79.64
2023-01-08T14:28:55.026Z,79.75
2023-01-08T14:33:59.114Z,80.22
2023-01-08T14:39:00.547Z,80.42
2023-01-08T14:44:02.556Z,80.38
2023-01-08T14:49:03.996Z,80.85
2023-01-08T14:54:08.528Z,80.88
2023-01-08T14:59:11.867Z,81.49
2023-01-08T15:04:18.908Z,81.76
2023-01-08T15:09:27.681Z,82.80
2023-01-08T15:14:39.054Z,82.03
2023-01-08T15:19:50.096Z,82.15
2023-01-08T15:25:17.057Z,82.58
2023-01-08T15:30:28.958Z,82.82
2023-01-08T15:35:30.366Z,82.75
2023-01-08T15:40:31.802Z,83.41
2023-01-08T15:45:33.456Z,83.05
2023-01-08T15:50:40.101Z,85.12
2023-01-08T15:55:43.707Z,86.32
2023-01-08T16:00:46.357Z,83.92
2023-01-08T16:05:47.833Z,84.41
2023-01-08T16:10:53.061Z,84.52
2023-01-08T16:15:55.824Z,84.24
2023-01-08T16:21:01.442Z,84.18
2023-01-08T16:26:10.256Z,84.01
2023-01-08T16:31:11.701Z,84.48
2023-01-08T16:36:13.156Z,85.69
2023-01-08T16:41:14.599Z,84.56
2023-01-08T16:46:18.025Z,85.46
2023-01-08T16:51:21.244Z,84.71
2023-01-08T16:56:22.796Z,84.95
2023-01-08T17:01:24.303Z,85.16
2023-01-08T17:06:25.769Z,85.53
2023-01-08T17:11:27.216Z,86.38
2023-01-08T17:16:29.475Z,85.54
2023-01-08T17:21:31.084Z,85.19
2023-01-08T17:26:32.723Z,84.76
2023-01-08T17:31:39.825Z,84.89
2023-01-08T17:36:41.821Z,84.66
2023-01-08T17:42:01.685Z,84.65
2023-01-08T17:47:03.107Z,84.71
2023-01-08T17:52:04.610Z,84.50
2023-01-08T17:57:06.041Z,84.29
2023-01-08T18:02:11.175Z,83.83
2023-01-08T18:07:12.748Z,83.54
2023-01-08T18:12:14.249Z,83.75
2023-01-08T18:17:15.763Z,83.61
2023-01-08T18:22:17.187Z,83.56
2023-01-08T18:27:18.656Z,83.74
2023-01-08T18:32:25.843Z,83.68
2023-01-08T18:37:27.402Z,83.61
2023-01-08T18:42:30.275Z,83.80
2023-01-08T18:47:31.774Z,83.68
2023-01-08T18:52:33.212Z,83.76
2023-01-08T18:57:34.707Z,83.63
2023-01-08T19:02:36.426Z,83.42
2023-01-08T19:07:38.013Z,83.54
2023-01-08T19:12:39.497Z,83.51
2023-01-08T19:17:40.925Z,83.13
2023-01-08T19:22:42.334Z,82.97
2023-01-08T19:27:43.828Z,82.70
2023-01-08T19:32:47.470Z,82.57
2023-01-08T19:37:48.965Z,82.43
2023-01-08T19:43:09.067Z,82.48
2023-01-08T19:48:10.485Z,82.77
2023-01-08T19:53:13.964Z,82.83
2023-01-08T19:58:18.547Z,82.47
2023-01-08T20:03:28.931Z,82.66
2023-01-08T20:08:30.337Z,82.82
2023-01-08T20:13:33.946Z,82.63
2023-01-08T20:18:35.970Z,82.96
2023-01-08T20:23:38.190Z,82.90
2023-01-08T20:28:40.002Z,83.07
2023-01-08T20:33:42.555Z,83.11
2023-01-08T20:38:45.016Z,83.12
2023-01-08T20:43:46.531Z,83.28
2023-01-08T20:48:48.440Z,83.71
2023-01-08T20:53:50.085Z,83.71
2023-01-08T20:58:51.614Z,83.55
2023-01-08T21:03:55.333Z,83.50
2023-01-08T21:08:59.572Z,83.42
2023-01-08T21:14:01.931Z,83.35
2023-01-08T21:19:03.958Z,83.64
2023-01-08T21:24:07.182Z,83.50
2023-01-08T21:29:09.059Z,83.73
2023-01-08T21:34:11.583Z,83.78
2023-01-08T21:39:13.269Z,84.06
2023-01-08T21:44:41.284Z,84.92
2023-01-08T21:49:43.515Z,84.96
2023-01-08T21:54:44.990Z,84.93
2023-01-08T21:59:49.287Z,84.85
2023-01-08T22:04:53.950Z,85.57
2023-01-08T22:09:55.617Z,86.09
2023-01-08T22:14:57.530Z,85.96
2023-01-08T22:20:00.296Z,85.95
2023-01-08T22:25:01.780Z,85.82
2023-01-08T22:30:04.227Z,85.73
2023-01-08T22:35:06.022Z,85.80
2023-01-08T22:40:07.980Z,86.11
2023-01-08T22:45:10.254Z,86.16
2023-01-08T22:50:12.281Z,86.33
2023-01-08T22:55:13.822Z,85.76
2023-01-08T23:00:15.655Z,85.72
2023-01-08T23:05:17.159Z,85.49
2023-01-08T23:10:18.758Z,85.53
2023-01-08T23:15:21.348Z,85.75
2023-01-08T23:20:24.848Z,85.51
2023-01-08T23:25:27.947Z,85.33
2023-01-08T23:30:31.460Z,85.76
2023-01-08T23:35:32.878Z,85.44
2023-01-08T23:40:34.316Z,85.43
2023-01-08T23:45:37.477Z,85.54
2023-01-08T23:50:38.947Z,86.02
2023-01-08T23:55:41.323Z,86.03
